Terminal Aerodrome Forecast
Issued by NWS

Home | Current Version | Previous Version | Text Only | Print | Product List | Glossary On
Versions: 1 2 3 4 5 6 7 8 9 10 11 12 13 14 15 16 17 18 19 20 21 22 23 24 25 26 27 28 29 30 31 32 33 34 35
000
FTUS46 KEKA 231757 CCA
TAFACV
TAF COR
KACV 231757Z 2318/2418 VRB03KT 2SM BR VCSH BKN025 OVC080
     FM232000 23005KT 4SM -RA BR SCT008 BKN015
     FM240100 20004KT 4SM -RA BR BKN007 OVC015
     FM240500 VRB03KT 4SM BR OVC005
     FM241200 VRB03KT 2SM BR OVC002
     FM241600 VRB03KT 6SM BR BKN004=

USA.gov is the U.S. government's official web portal to all federal, state and local government web resources and services.